createdAt,value
2018-11-22T00:12:05.533Z,55.10
2018-11-22T00:14:46.192Z,50.10
2018-11-22T00:17:27.131Z,56.03
2018-11-22T00:20:08.208Z,48.03
2018-11-22T00:22:48.883Z,59.37
2018-11-22T00:25:29.560Z,61.37
2018-11-22T00:28:09.818Z,48.17
2018-11-22T00:30:51.074Z,51.77
2018-11-22T00:33:32.610Z,48.23
2018-11-22T00:36:13.234Z,47.37
2018-11-22T00:38:53.904Z,60.07
2018-11-22T00:41:34.702Z,51.37
2018-11-22T00:44:15.954Z,46.50
2018-11-22T00:46:57.211Z,43.30
2018-11-22T00:49:38.140Z,44.10
2018-11-22T00:52:19.484Z,44.70
2018-11-22T00:55:00.535Z,48.90
2018-11-22T00:57:41.619Z,48.67
2018-11-22T01:00:27.092Z,46.47
2018-11-22T01:03:08.215Z,47.40
2018-11-22T01:05:49.384Z,44.07
2018-11-22T01:08:30.425Z,46.67
2018-11-22T01:11:11.569Z,43.87
2018-11-22T01:13:52.750Z,46.60
2018-11-22T01:16:33.551Z,44.90
2018-11-22T01:19:23.135Z,45.00
2018-11-22T01:22:04.498Z,41.17
2018-11-22T01:24:45.093Z,48.93
2018-11-22T01:27:25.761Z,49.40
2018-11-22T01:30:06.583Z,42.10
2018-11-22T01:32:48.740Z,39.03
2018-11-22T01:35:29.818Z,46.90
2018-11-22T01:38:10.724Z,51.77
2018-11-22T01:40:51.509Z,49.03
2018-11-22T01:43:32.794Z,44.83
2018-11-22T01:46:13.720Z,41.70
2018-11-22T01:48:54.582Z,37.53
2018-11-22T01:51:35.198Z,44.23
2018-11-22T01:54:16.088Z,35.13
2018-11-22T01:56:57.491Z,38.60
2018-11-22T01:59:38.581Z,39.33
2018-11-22T02:05:09.143Z,39.30
2018-11-22T02:07:50.284Z,40.43
2018-11-22T02:10:31.531Z,42.20
2018-11-22T02:13:12.312Z,36.33
2018-11-22T02:15:53.277Z,41.43
2018-11-22T02:18:34.482Z,36.87
2018-11-22T02:21:15.223Z,37.70
2018-11-22T02:23:56.349Z,39.33
2018-11-22T02:26:37.452Z,40.47
2018-11-22T02:29:18.293Z,39.60
2018-11-22T02:31:59.153Z,44.63
2018-11-22T02:34:39.548Z,43.80
2018-11-22T02:37:20.982Z,41.13
2018-11-22T02:40:01.562Z,33.90
2018-11-22T02:42:43.495Z,40.00
2018-11-22T02:45:25.555Z,34.93
2018-11-22T02:48:06.859Z,36.73
2018-11-22T02:50:48.026Z,38.23
2018-11-22T02:53:29.345Z,35.97
2018-11-22T02:56:10.543Z,37.13
2018-11-22T02:58:51.106Z,38.67
2018-11-22T03:01:32.295Z,42.63
2018-11-22T03:04:14.306Z,37.70
2018-11-22T03:06:54.833Z,47.33
2018-11-22T03:09:36.105Z,45.47
2018-11-22T03:12:17.107Z,41.87
2018-11-22T03:14:58.325Z,44.30
2018-11-22T03:20:23.014Z,40.20
2018-11-22T03:23:03.458Z,52.50
2018-11-22T03:25:44.677Z,42.80
2018-11-22T03:28:25.339Z,36.57
2018-11-22T03:31:06.400Z,43.40
2018-11-22T03:36:32.233Z,47.43
2018-11-22T03:39:13.396Z,46.03
2018-11-22T03:41:54.596Z,51.23
2018-11-22T03:44:35.912Z,52.47
2018-11-22T03:47:16.404Z,45.33
2018-11-22T03:52:42.722Z,43.77
2018-11-22T03:58:06.726Z,43.40
2018-11-22T04:03:30.291Z,40.57
2018-11-22T04:06:11.144Z,47.53
2018-11-22T04:08:52.156Z,46.40
2018-11-22T04:11:33.177Z,186.87
2018-11-22T04:14:14.235Z,54.07
2018-11-22T04:16:55.294Z,45.37
2018-11-22T04:19:35.982Z,43.40
2018-11-22T04:22:17.077Z,38.17
2018-11-22T04:24:58.289Z,38.57
2018-11-22T04:27:39.290Z,41.27
2018-11-22T04:30:30.329Z,51.73
2018-11-22T04:33:11.303Z,41.17
2018-11-22T04:35:52.488Z,40.07
2018-11-22T04:38:33.468Z,42.40
2018-11-22T04:41:14.032Z,44.17
2018-11-22T04:46:40.386Z,44.87
2018-11-22T04:49:21.467Z,46.00
2018-11-22T04:52:02.276Z,46.73
2018-11-22T04:54:46.273Z,51.90
2018-11-22T04:57:27.049Z,43.50
2018-11-22T05:00:07.804Z,61.17
2018-11-22T05:02:51.952Z,74.20
2018-11-22T05:05:33.364Z,45.03
2018-11-22T05:08:13.997Z,50.47
2018-11-22T05:10:54.954Z,65.83
2018-11-22T05:13:35.384Z,83.33
2018-11-22T05:16:16.330Z,70.80
2018-11-22T05:18:58.729Z,61.63
2018-11-22T05:24:23.562Z,92.13
2018-11-22T05:29:48.884Z,78.73
2018-11-22T05:32:33.249Z,93.60
2018-11-22T05:35:11.903Z,67.57
2018-11-22T05:37:53.022Z,66.00
2018-11-22T05:40:34.205Z,59.33
2018-11-22T05:43:15.055Z,71.83
2018-11-22T05:45:56.352Z,70.20
2018-11-22T05:48:36.824Z,52.37
2018-11-22T05:51:17.370Z,54.10
2018-11-22T05:53:58.580Z,72.30
2018-11-22T05:56:39.498Z,58.63
2018-11-22T06:02:02.709Z,69.53
2018-11-22T06:04:43.333Z,53.17
2018-11-22T06:07:24.278Z,75.47
2018-11-22T06:10:05.713Z,64.27
2018-11-22T06:12:47.420Z,65.33
2018-11-22T06:15:30.990Z,63.30
2018-11-22T06:18:12.330Z,47.80
2018-11-22T06:23:37.113Z,63.57
2018-11-22T06:26:18.216Z,47.67
2018-11-22T06:29:03.494Z,110.63
2018-11-22T06:31:44.824Z,64.33
2018-11-22T06:34:26.188Z,114.13
2018-11-22T06:39:55.090Z,89.27
2018-11-22T06:45:20.637Z,141.77
2018-11-22T06:48:01.247Z,74.37
2018-11-22T06:50:41.774Z,120.57
2018-11-22T06:53:22.915Z,144.03
2018-11-22T06:56:04.614Z,174.83
2018-11-22T07:01:31.511Z,263.60
2018-11-22T07:04:12.176Z,181.63
2018-11-22T07:06:52.942Z,62.27
2018-11-22T07:12:17.784Z,227.17
2018-11-22T07:15:01.930Z,118.00
2018-11-22T12:18:04.853Z,24.27
2018-11-22T12:20:33.769Z,18.00
2018-11-22T12:23:02.796Z,20.97
2018-11-22T12:25:32.754Z,18.47
2018-11-22T12:37:39.140Z,17.13
2018-11-22T12:40:10.444Z,16.27
2018-11-22T12:42:46.285Z,13.83
2018-11-22T12:45:17.940Z,16.53
2018-11-22T12:51:15.523Z,14.20
2018-11-22T13:03:52.951Z,15.97
2018-11-22T13:09:17.214Z,20.80
2018-11-22T13:11:49.839Z,13.80
2018-11-22T13:14:21.314Z,16.07
2018-11-22T13:35:20.330Z,19.03
2018-11-22T13:37:53.766Z,18.83
2018-11-22T13:40:26.337Z,14.27
2018-11-22T13:43:10.043Z,17.30
2018-11-22T13:45:41.645Z,18.90
2018-11-22T13:52:01.196Z,18.80
2018-11-22T13:57:32.871Z,23.17
2018-11-22T14:00:30.537Z,16.17
2018-11-22T14:03:12.813Z,15.50
2018-11-22T14:11:38.326Z,20.73
2018-11-22T15:16:27.472Z,20.17
2018-11-22T15:56:21.929Z,48.37
2018-11-22T16:03:46.567Z,37.70
2018-11-22T16:06:24.891Z,27.43
2018-11-22T16:08:53.469Z,22.37
2018-11-22T16:11:22.077Z,29.57
2018-11-22T16:13:50.696Z,68.27
2018-11-22T16:16:19.533Z,35.47
2018-11-22T16:18:48.206Z,31.33
2018-11-22T16:21:16.740Z,34.13
2018-11-22T16:23:45.341Z,33.30
2018-11-22T16:26:13.912Z,52.00
2018-11-22T16:28:42.678Z,69.83
2018-11-22T16:31:11.812Z,32.90
2018-11-22T16:33:40.560Z,26.60
2018-11-22T16:36:15.096Z,28.30
2018-11-22T16:38:44.299Z,25.33
2018-11-22T16:41:13.033Z,33.93
2018-11-22T16:43:41.815Z,81.50
2018-11-22T16:46:11.860Z,44.47
2018-11-22T16:48:40.371Z,405.53
2018-11-22T16:53:46.193Z,38.63
2018-11-22T16:56:14.787Z,37.00
2018-11-22T16:58:43.447Z,42.63
2018-11-22T17:01:12.085Z,40.70
2018-11-22T17:03:40.718Z,45.17
2018-11-22T17:06:09.413Z,43.30
2018-11-22T17:08:38.199Z,43.93
2018-11-22T17:11:06.926Z,42.50
2018-11-22T17:13:35.550Z,43.40
2018-11-22T17:16:04.118Z,44.87
2018-11-22T17:18:32.648Z,41.50
2018-11-22T17:21:01.240Z,47.77
2018-11-22T17:23:30.051Z,53.07
2018-11-22T17:25:58.638Z,49.50
2018-11-22T17:28:27.301Z,45.30
2018-11-22T17:30:55.932Z,52.20
2018-11-22T17:33:24.449Z,56.17
2018-11-22T17:35:53.071Z,53.47
2018-11-22T17:38:21.592Z,52.17
2018-11-22T17:40:51.107Z,49.47
2018-11-22T17:43:19.650Z,58.47
2018-11-22T17:45:49.773Z,61.97
2018-11-22T17:48:18.304Z,67.40
2018-11-22T17:50:47.852Z,63.30
2018-11-22T17:53:16.456Z,60.43
2018-11-22T17:55:45.026Z,65.17
2018-11-22T17:58:14.301Z,60.20
2018-11-22T18:00:47.477Z,64.70
2018-11-22T18:03:16.098Z,59.37
2018-11-22T18:05:44.827Z,68.00
2018-11-22T18:08:13.391Z,64.47
2018-11-22T18:10:43.100Z,57.27
2018-11-22T18:13:11.705Z,65.53
2018-11-22T18:15:45.403Z,59.37
2018-11-22T18:18:15.061Z,58.47
2018-11-22T18:20:43.711Z,70.73
2018-11-22T18:23:12.451Z,71.87
2018-11-22T18:25:40.999Z,69.83
2018-11-22T18:28:09.759Z,70.17
2018-11-22T18:30:38.260Z,64.70
2018-11-22T18:33:09.703Z,65.63
2018-11-22T18:38:17.177Z,63.07
2018-11-22T18:40:46.561Z,63.93
2018-11-22T18:43:15.968Z,64.67
2018-11-22T18:45:48.457Z,67.77
2018-11-22T18:48:18.095Z,76.00
2018-11-22T18:50:47.139Z,70.47
2018-11-22T18:53:18.190Z,70.70
2018-11-22T18:55:50.432Z,84.17
2018-11-22T18:58:20.213Z,81.03
2018-11-22T19:00:50.346Z,82.27
2018-11-22T19:03:20.125Z,86.77
2018-11-22T19:05:48.772Z,83.30
2018-11-22T19:08:17.964Z,88.40
2018-11-22T19:10:50.367Z,79.60
2018-11-22T19:13:23.347Z,77.63
2018-11-22T19:15:57.315Z,83.27
2018-11-22T19:18:29.102Z,77.73
2018-11-22T19:20:57.731Z,77.10
2018-11-22T19:23:27.555Z,83.80
2018-11-22T19:25:56.262Z,73.80
2018-11-22T19:28:25.001Z,71.93
2018-11-22T19:30:53.606Z,70.17
2018-11-22T19:33:22.473Z,73.10
2018-11-22T19:35:53.713Z,91.47
2018-11-22T19:38:23.973Z,85.20
2018-11-22T19:40:52.826Z,83.20
2018-11-22T19:43:21.482Z,85.27
2018-11-22T19:45:50.452Z,84.07
2018-11-22T19:48:24.588Z,72.23
2018-11-22T19:50:53.087Z,81.07
2018-11-22T19:53:21.662Z,80.10
2018-11-22T19:55:50.210Z,78.47
2018-11-22T19:58:20.100Z,79.37
2018-11-22T20:00:48.842Z,90.77
2018-11-22T20:03:17.329Z,76.17
2018-11-22T20:05:45.963Z,72.17
2018-11-22T20:08:16.443Z,75.37
2018-11-22T20:10:45.940Z,75.60
2018-11-22T20:13:14.729Z,76.57
2018-11-22T20:15:43.767Z,68.90
2018-11-22T20:18:12.848Z,73.40
2018-11-22T20:22:49.325Z,73.97
2018-11-22T20:25:18.101Z,71.50
2018-11-22T20:27:47.129Z,68.23
2018-11-22T20:30:17.961Z,59.17
2018-11-22T20:32:47.232Z,63.10
2018-11-22T20:35:17.427Z,75.20
2018-11-22T20:37:48.148Z,72.30
2018-11-22T20:40:22.242Z,70.00
2018-11-22T20:42:51.335Z,72.17
2018-11-22T20:45:21.249Z,79.03
2018-11-22T20:47:51.933Z,95.80
2018-11-22T20:50:21.913Z,93.77
2018-11-22T20:52:50.823Z,72.67
2018-11-22T20:55:25.633Z,79.13
2018-11-22T20:57:55.806Z,81.00
2018-11-22T21:00:27.915Z,81.73
2018-11-22T21:02:57.542Z,72.93
2018-11-22T21:05:28.594Z,51.83
2018-11-22T21:07:57.267Z,60.57
2018-11-22T21:10:27.152Z,63.50
2018-11-22T21:12:55.848Z,50.47
2018-11-22T21:15:26.859Z,62.83
2018-11-22T21:18:00.858Z,109.87
2018-11-22T21:20:31.929Z,301.70
2018-11-22T21:23:00.879Z,74.87
2018-11-22T21:25:29.666Z,70.77
2018-11-22T21:27:58.426Z,70.37
2018-11-22T21:30:29.686Z,76.10
2018-11-22T21:33:02.154Z,108.37
2018-11-22T21:35:31.219Z,114.70
2018-11-22T21:38:11.043Z,100.40
2018-11-22T21:40:41.122Z,100.27
2018-11-22T21:43:09.686Z,92.53
2018-11-22T21:45:38.686Z,122.37
2018-11-22T21:48:13.013Z,89.23
2018-11-22T21:50:42.091Z,165.67
2018-11-22T21:53:11.904Z,130.90
2018-11-22T21:55:40.805Z,66.40
2018-11-22T21:58:09.522Z,119.30
2018-11-22T22:00:42.314Z,65.30
2018-11-22T22:03:11.855Z,67.83
2018-11-22T22:05:41.509Z,83.23
2018-11-22T22:08:10.187Z,172.70
2018-11-22T22:10:38.902Z,111.47
2018-11-22T22:13:07.435Z,52.63
2018-11-22T22:15:38.317Z,73.17
2018-11-22T22:18:07.791Z,82.33
2018-11-22T22:20:36.827Z,106.30
2018-11-22T22:23:05.585Z,130.73
2018-11-22T22:25:34.186Z,147.63
2018-11-22T22:28:03.123Z,200.87
2018-11-22T22:30:32.975Z,125.77
2018-11-22T22:33:03.223Z,258.30
2018-11-22T22:35:33.001Z,239.70
2018-11-22T22:38:01.731Z,434.60
2018-11-22T22:40:31.602Z,110.80
2018-11-22T22:43:00.976Z,74.13
2018-11-22T22:45:30.613Z,292.83
2018-11-22T22:48:00.916Z,347.87
2018-11-22T22:50:30.672Z,98.43
2018-11-22T22:53:00.384Z,137.03
2018-11-22T22:55:30.908Z,74.50
2018-11-22T22:58:00.152Z,111.53
2018-11-22T23:00:36.447Z,129.90
2018-11-22T23:03:06.538Z,180.13
2018-11-22T23:05:35.966Z,173.33
2018-11-22T23:08:04.594Z,127.27
2018-11-22T23:10:35.551Z,85.90
2018-11-22T23:13:04.231Z,231.17
2018-11-22T23:15:35.274Z,112.17
2018-11-22T23:18:04.075Z,191.23
2018-11-22T23:20:34.362Z,120.50
2018-11-22T23:23:03.143Z,104.80
2018-11-22T23:25:31.693Z,179.37
2018-11-22T23:28:00.357Z,185.07
2018-11-22T23:30:30.566Z,145.87
2018-11-22T23:33:01.588Z,111.43
2018-11-22T23:35:30.129Z,152.47
2018-11-22T23:38:01.415Z,144.47
2018-11-22T23:40:30.927Z,221.73
2018-11-22T23:42:59.805Z,155.17
2018-11-22T23:45:30.469Z,300.53
2018-11-22T23:47:59.082Z,176.93
2018-11-22T23:50:29.004Z,235.50
2018-11-22T23:52:58.596Z,380.40
2018-11-22T23:55:27.185Z,324.77
2018-11-22T23:57:55.777Z,223.57
